WBGG

Kuching International Airport

Kuching, Malaysia
TAF WBGG 190500Z 1906/2006 VRB03KT 9999 FEW018 TEMPO 1907/1911 3000 TSRA FEW015CB SCT016
Issued Valid From Valid To
Oct-19 @ 05:00 UTC
(4 hours ago)
Oct-19 @ 06:00 UTC
(3 hours ago)
Oct-20 @ 06:00 UTC
(in 21 hours)
Oct-19 @ 06:00 to Oct-20 @ 06:00
TAF WBGG 190500Z 1906/2006 VRB03KT 9999 FEW018
Wind Visibility Clouds
Variable at 3 knots 10,000+ meters
  • Few at 1,800' AGL
Temporary Oct-19 @ 07:00 to Oct-19 @ 11:00
TEMPO 1907/1911 3000 TSRA FEW015CB SCT016
Visibility Clouds Conditions
2,993 meters
  • Few at 1,500' AGL
  • Scattered at 1,600' AGL
  • Thunderstorm
  • Rain
TAF WBGG 190500Z 1906/2006 VRB03KT 9999 FEW018 TEMPO 1907/1911 3000 TSRA FEW015CB SCT016
Issued Oct-19 @ 05:00 UTC
(4 hours ago)
Valid From Oct-19 @ 06:00 UTC
(3 hours ago)
Valid To Oct-20 @ 06:00 UTC
(in 21 hours)
Oct-19 @ 06:00 - Oct-20 @ 06:00
Wind Visibility
Variable at 3 knots 10,000+ meters
Clouds
  • Few at 1,800' AGL
Temporary Oct-19 @ 07:00 - Oct-19 @ 11:00
Clouds
  • Few at 1,500' AGL
  • Scattered at 1,600' AGL
Conditions
  • Thunderstorm
  • Rain